createdAt,value
2022-09-20T00:01:36.006Z,13.50
2022-09-20T00:04:07.026Z,13.49
2022-09-20T00:06:36.652Z,13.57
2022-09-20T00:09:07.307Z,13.60
2022-09-20T00:11:37.147Z,13.83
2022-09-20T00:14:08.821Z,13.87
2022-09-20T00:16:41.290Z,13.72
2022-09-20T00:19:17.782Z,13.44
2022-09-20T00:21:46.672Z,13.09
2022-09-20T00:24:16.806Z,13.22
2022-09-20T00:26:45.549Z,13.19
2022-09-20T00:29:14.322Z,13.18
2022-09-20T00:31:43.307Z,13.41
2022-09-20T00:34:30.323Z,13.58
2022-09-20T00:36:59.139Z,13.41
2022-09-20T00:39:29.336Z,13.38
2022-09-20T00:41:58.204Z,13.43
2022-09-20T00:44:50.950Z,13.05
2022-09-20T00:47:29.294Z,12.70
2022-09-20T00:50:03.521Z,12.58
2022-09-20T00:52:33.658Z,12.35
2022-09-20T00:55:08.358Z,12.01
2022-09-20T00:57:39.187Z,11.75
2022-09-20T01:00:10.268Z,11.72
2022-09-20T01:02:43.254Z,11.86
2022-09-20T01:05:14.958Z,12.18
2022-09-20T01:07:45.329Z,12.38
2022-09-20T01:10:15.639Z,12.35
2022-09-20T01:12:46.258Z,12.30
2022-09-20T01:15:16.030Z,12.42
2022-09-20T01:17:49.175Z,12.47
2022-09-20T01:20:22.569Z,12.08
2022-09-20T01:23:17.098Z,11.68
2022-09-20T01:26:13.467Z,11.39
2022-09-20T01:28:47.889Z,11.84
2022-09-20T01:31:23.016Z,12.16
2022-09-20T01:33:53.718Z,12.16
2022-09-20T01:36:26.929Z,11.96
2022-09-20T01:39:07.025Z,11.82
2022-09-20T01:41:43.172Z,11.48
2022-09-20T01:44:18.503Z,11.34
2022-09-20T01:46:50.327Z,10.77
2022-09-20T01:49:33.990Z,10.91
2022-09-20T01:52:36.471Z,11.26
2022-09-20T01:55:58.865Z,11.56
2022-09-20T01:59:07.260Z,11.43
2022-09-20T02:02:07.639Z,10.89
2022-09-20T02:04:59.291Z,11.23
2022-09-20T02:07:49.105Z,10.75
2022-09-20T02:10:40.108Z,11.20
2022-09-20T02:13:12.254Z,11.38
2022-09-20T02:16:02.480Z,11.48
2022-09-20T02:18:48.716Z,10.88
2022-09-20T02:21:30.662Z,10.48
2022-09-20T02:24:11.654Z,10.41
2022-09-20T02:26:49.509Z,10.63
2022-09-20T02:29:31.229Z,10.91
2022-09-20T02:32:18.671Z,11.05
2022-09-20T02:35:13.636Z,11.34
2022-09-20T02:37:56.484Z,10.70
2022-09-20T02:40:40.534Z,10.28
2022-09-20T02:43:25.396Z,10.32
2022-09-20T02:46:02.576Z,9.94
2022-09-20T02:48:40.241Z,9.59
2022-09-20T02:51:21.637Z,9.71
2022-09-20T02:54:01.983Z,10.40
2022-09-20T02:56:40.132Z,10.66
2022-09-20T02:59:15.673Z,10.81
2022-09-20T03:01:51.718Z,10.86
2022-09-20T03:04:31.526Z,10.95
2022-09-20T03:07:11.438Z,10.85
2022-09-20T03:09:49.517Z,10.26
2022-09-20T03:12:27.567Z,10.23
2022-09-20T03:15:06.572Z,10.18
2022-09-20T03:17:45.364Z,10.10
2022-09-20T03:20:25.994Z,9.80
2022-09-20T03:23:09.018Z,10.04
2022-09-20T03:25:50.659Z,10.15
2022-09-20T03:28:35.685Z,10.02
2022-09-20T03:31:16.776Z,9.75
2022-09-20T03:33:55.128Z,9.38
2022-09-20T03:36:46.673Z,9.50
2022-09-20T03:39:35.032Z,10.10
2022-09-20T03:42:16.647Z,10.30
2022-09-20T03:45:07.609Z,10.05
2022-09-20T03:47:56.517Z,9.70
2022-09-20T03:50:42.351Z,9.49
2022-09-20T03:53:31.656Z,9.84
2022-09-20T03:56:24.276Z,9.40
2022-09-20T03:59:13.415Z,9.82
2022-09-20T04:02:15.718Z,10.06
2022-09-20T04:04:51.071Z,9.87
2022-09-20T04:07:24.729Z,10.19
2022-09-20T04:10:20.242Z,10.35
2022-09-20T04:13:05.332Z,10.33
2022-09-20T04:15:44.827Z,10.37
2022-09-20T04:18:24.617Z,10.56
2022-09-20T04:21:01.301Z,10.12
2022-09-20T04:23:48.460Z,10.00
2022-09-20T04:26:24.485Z,9.92
2022-09-20T04:28:58.596Z,9.80
2022-09-20T04:31:36.838Z,10.05
2022-09-20T04:34:12.148Z,10.36
2022-09-20T04:36:57.822Z,10.79
2022-09-20T04:39:33.509Z,10.76
2022-09-20T04:42:42.906Z,10.79
2022-09-20T04:45:51.590Z,10.85
2022-09-20T04:48:51.568Z,10.90
2022-09-20T04:51:48.287Z,11.07
2022-09-20T04:54:56.182Z,11.55
2022-09-20T04:57:55.014Z,11.55
2022-09-20T05:00:25.728Z,11.30
2022-09-20T05:03:35.606Z,11.38
2022-09-20T05:06:50.847Z,11.57
2022-09-20T05:09:42.817Z,-145.44
2022-09-20T05:12:37.227Z,-145.44
2022-09-20T05:15:26.549Z,-145.44
2022-09-20T05:18:15.915Z,-145.44
2022-09-20T05:20:59.433Z,-145.44
2022-09-20T05:23:47.805Z,-145.44
2022-09-20T05:26:27.681Z,-145.44
2022-09-20T05:29:03.582Z,-145.44
2022-09-20T05:31:40.448Z,-145.44
2022-09-20T05:34:21.644Z,-145.44
2022-09-20T05:36:58.830Z,-145.44
2022-09-20T05:39:40.304Z,-145.44
2022-09-20T05:42:18.331Z,-145.44
2022-09-20T05:45:02.957Z,-145.44
2022-09-20T05:47:41.470Z,11.57
2022-09-20T05:50:33.454Z,10.99
2022-09-20T05:53:15.478Z,11.12
2022-09-20T05:56:01.970Z,11.35
2022-09-20T05:58:49.283Z,12.09
2022-09-20T06:01:24.486Z,12.80
2022-09-20T06:04:00.271Z,-145.44
2022-09-20T06:06:32.887Z,10.76
2022-09-20T06:09:31.262Z,11.26
2022-09-20T06:12:25.034Z,11.22
2022-09-20T06:15:02.045Z,11.55
2022-09-20T06:17:38.555Z,12.01
2022-09-20T06:20:19.553Z,12.21
2022-09-20T06:22:52.941Z,12.46
2022-09-20T06:25:26.299Z,12.16
2022-09-20T06:28:00.497Z,12.58
2022-09-20T06:30:34.397Z,13.76
2022-09-20T06:33:15.858Z,13.92
2022-09-20T06:35:48.849Z,12.84
2022-09-20T06:38:59.329Z,12.29
2022-09-20T06:41:30.672Z,13.07
2022-09-20T06:44:04.092Z,12.92
2022-09-20T06:46:35.728Z,13.13
2022-09-20T06:49:08.311Z,13.33
2022-09-20T06:51:39.377Z,13.71
2022-09-20T06:54:15.655Z,14.09
2022-09-20T06:56:47.376Z,14.55
2022-09-20T06:59:17.733Z,14.45
2022-09-20T07:01:46.568Z,14.66
2022-09-20T07:04:15.360Z,13.93
2022-09-20T07:06:44.142Z,15.04
2022-09-20T07:09:13.137Z,14.45
2022-09-20T07:11:43.139Z,15.48
2022-09-20T07:14:11.979Z,15.48
2022-09-20T07:16:42.237Z,15.08
2022-09-20T07:19:11.235Z,14.62
2022-09-20T07:21:40.523Z,14.69
2022-09-20T07:24:09.408Z,14.61
2022-09-20T07:26:38.900Z,14.97
2022-09-20T07:29:08.004Z,14.72
2022-09-20T07:31:36.869Z,14.27
2022-09-20T07:34:07.117Z,14.07
2022-09-20T07:36:35.917Z,14.36
2022-09-20T07:39:04.830Z,14.24
2022-09-20T07:41:33.594Z,14.34
2022-09-20T07:44:20.992Z,14.68
2022-09-20T07:46:50.007Z,13.85
2022-09-20T07:49:21.425Z,14.44
2022-09-20T07:51:50.722Z,14.68
2022-09-20T07:54:19.861Z,14.70
2022-09-20T07:56:49.595Z,14.27
2022-09-20T07:59:18.420Z,14.85
2022-09-20T08:01:47.537Z,15.22
2022-09-20T08:04:16.512Z,15.33
2022-09-20T08:06:47.490Z,14.82
2022-09-20T08:09:16.279Z,15.38
2022-09-20T08:11:45.464Z,14.80
2022-09-20T08:14:15.506Z,15.35
2022-09-20T08:16:47.265Z,15.71
2022-09-20T08:19:19.077Z,15.36
2022-09-20T08:21:50.122Z,14.59
2022-09-20T08:24:19.125Z,15.05
2022-09-20T08:26:48.560Z,15.30
2022-09-20T08:29:17.371Z,14.67
2022-09-20T08:31:47.253Z,14.97
2022-09-20T08:34:17.740Z,15.17
2022-09-20T08:36:51.882Z,15.32
2022-09-20T08:42:18.582Z,15.68
2022-09-20T08:45:00.568Z,14.94
2022-09-20T08:47:32.173Z,14.89
2022-09-20T08:50:17.218Z,15.12
2022-09-20T08:52:49.917Z,16.67
2022-09-20T08:55:22.129Z,16.27
2022-09-20T08:57:53.356Z,15.75
2022-09-20T09:00:25.472Z,15.94
2022-09-20T09:02:57.387Z,15.94
2022-09-20T09:05:34.938Z,16.35
2022-09-20T09:08:16.091Z,16.31
2022-09-20T09:10:53.177Z,16.63
2022-09-20T09:13:33.017Z,16.13
2022-09-20T09:16:07.586Z,17.25
2022-09-20T09:18:38.840Z,17.73
2022-09-20T09:21:10.477Z,17.97
2022-09-20T09:23:43.187Z,17.84
2022-09-20T09:26:21.590Z,17.96
2022-09-20T09:29:11.151Z,18.02
2022-09-20T09:31:40.222Z,19.22
2022-09-20T09:34:27.208Z,19.60
2022-09-20T09:36:56.773Z,20.02
2022-09-20T09:39:29.408Z,19.80
2022-09-20T09:42:01.134Z,19.94
2022-09-20T09:44:32.872Z,19.21
2022-09-20T09:47:02.609Z,20.13
2022-09-20T09:49:36.204Z,20.33
2022-09-20T09:52:14.372Z,20.95
2022-09-20T09:54:49.057Z,21.32
2022-09-20T09:57:41.065Z,22.23
2022-09-20T10:00:20.913Z,20.91
2022-09-20T10:03:08.928Z,19.56
2022-09-20T10:05:45.367Z,20.15
2022-09-20T10:08:26.578Z,20.35
2022-09-20T10:11:11.546Z,18.85
2022-09-20T10:13:51.642Z,20.39
2022-09-20T10:16:31.528Z,21.61
2022-09-20T10:19:08.451Z,19.09
2022-09-20T10:21:49.330Z,18.57
2022-09-20T10:24:31.376Z,19.22
2022-09-20T10:27:22.596Z,19.71
2022-09-20T10:30:03.120Z,19.04
2022-09-20T10:32:52.602Z,18.75
2022-09-20T10:35:30.347Z,18.70
2022-09-20T10:38:14.278Z,18.65
2022-09-20T10:41:21.951Z,18.78
2022-09-20T10:44:09.945Z,20.22
2022-09-20T10:46:53.105Z,19.51
2022-09-20T10:49:28.943Z,19.34
2022-09-20T10:52:45.484Z,18.58
2022-09-20T10:55:32.249Z,18.84
2022-09-20T10:58:23.741Z,18.62
2022-09-20T11:01:02.384Z,18.05
2022-09-20T11:03:46.480Z,19.03
2022-09-20T11:06:19.822Z,20.58
2022-09-20T11:08:55.797Z,19.28
2022-09-20T11:11:31.487Z,19.61
2022-09-20T11:14:05.922Z,19.38
2022-09-20T11:16:42.002Z,18.63
2022-09-20T11:19:23.481Z,18.23
2022-09-20T11:21:58.549Z,19.09
2022-09-20T11:24:36.016Z,19.49
2022-09-20T11:27:13.767Z,18.97
2022-09-20T11:29:50.396Z,21.17
2022-09-20T11:32:28.558Z,20.77
2022-09-20T11:35:03.326Z,20.36
2022-09-20T11:37:37.353Z,20.64
2022-09-20T11:40:20.759Z,20.64
2022-09-20T11:42:52.680Z,21.28
2022-09-20T11:45:28.168Z,20.47
2022-09-20T11:48:03.661Z,20.04
2022-09-20T11:51:16.880Z,19.95
2022-09-20T11:54:07.123Z,20.68
2022-09-20T11:56:36.014Z,19.66
2022-09-20T11:59:09.227Z,18.35
2022-09-20T12:01:39.943Z,18.93
2022-09-20T12:04:31.742Z,19.21
2022-09-20T12:07:08.352Z,19.60
2022-09-20T12:09:41.969Z,20.58
2022-09-20T12:12:20.623Z,20.24
2022-09-20T12:14:56.402Z,19.98
2022-09-20T12:18:06.793Z,21.79
2022-09-20T12:21:04.709Z,21.12
2022-09-20T12:24:10.494Z,20.50
2022-09-20T12:26:51.346Z,22.88
2022-09-20T12:30:05.015Z,22.19
2022-09-20T12:32:57.373Z,24.34
2022-09-20T12:36:16.694Z,24.25
2022-09-20T12:39:02.215Z,25.25
2022-09-20T12:41:51.139Z,25.42
2022-09-20T12:44:27.006Z,24.31
2022-09-20T12:46:58.945Z,23.82
2022-09-20T12:49:56.416Z,23.66
2022-09-20T12:52:53.859Z,24.10
2022-09-20T12:55:49.845Z,23.83
2022-09-20T12:58:23.857Z,23.94
2022-09-20T13:01:30.490Z,23.75
2022-09-20T13:04:36.735Z,23.47
2022-09-20T13:07:35.004Z,23.67
2022-09-20T13:10:16.963Z,23.26
2022-09-20T13:12:51.463Z,22.56
2022-09-20T13:15:24.205Z,22.66
2022-09-20T13:17:56.494Z,22.49
2022-09-20T13:20:29.927Z,22.29
2022-09-20T13:23:00.597Z,23.23
2022-09-20T13:25:29.959Z,23.42
2022-09-20T13:28:08.410Z,23.84
2022-09-20T13:30:40.563Z,23.83
2022-09-20T13:33:23.667Z,24.23
2022-09-20T13:35:56.979Z,24.00
2022-09-20T13:38:30.087Z,23.93
2022-09-20T13:41:09.069Z,24.08
2022-09-20T13:43:42.991Z,23.66
2022-09-20T13:46:14.311Z,21.97
2022-09-20T13:48:43.720Z,21.20
2022-09-20T13:51:20.673Z,20.83
2022-09-20T13:53:49.481Z,20.82
2022-09-20T13:56:22.554Z,21.91
2022-09-20T13:58:53.096Z,22.50
2022-09-20T14:01:29.782Z,21.76
2022-09-20T14:04:06.492Z,21.00
2022-09-20T14:06:36.478Z,20.36
2022-09-20T14:09:11.017Z,20.28
2022-09-20T14:11:41.115Z,20.01
2022-09-20T14:14:19.885Z,19.88
2022-09-20T14:16:52.986Z,20.11
2022-09-20T14:19:26.899Z,19.90
2022-09-20T14:21:57.734Z,20.27
2022-09-20T14:24:35.418Z,20.09
2022-09-20T14:27:17.600Z,19.76
2022-09-20T14:29:50.637Z,19.93
2022-09-20T14:32:41.004Z,20.18
2022-09-20T14:35:18.264Z,20.49
2022-09-20T14:37:50.876Z,20.60
2022-09-20T14:40:26.123Z,20.67
2022-09-20T14:42:56.086Z,20.57
2022-09-20T14:45:30.453Z,20.73
2022-09-20T14:48:08.050Z,20.36
2022-09-20T14:50:40.976Z,19.90
2022-09-20T14:53:27.845Z,19.51
2022-09-20T14:56:08.240Z,19.30
2022-09-20T14:59:10.428Z,19.27
2022-09-20T15:01:45.000Z,19.32
2022-09-20T15:04:21.517Z,19.14
2022-09-20T15:06:52.292Z,19.25
2022-09-20T15:09:22.722Z,19.12
2022-09-20T15:12:02.702Z,18.77
2022-09-20T15:14:36.990Z,18.98
2022-09-20T15:17:08.430Z,18.77
2022-09-20T15:19:37.286Z,19.20
2022-09-20T15:22:06.105Z,19.59
2022-09-20T15:24:34.954Z,19.52
2022-09-20T15:27:03.861Z,19.57
2022-09-20T15:29:32.843Z,19.82
2022-09-20T15:32:02.876Z,19.97
2022-09-20T15:34:33.486Z,20.04
2022-09-20T15:37:02.341Z,19.57
2022-09-20T15:39:31.096Z,19.61
2022-09-20T15:41:59.858Z,19.51
2022-09-20T15:44:28.778Z,19.23
2022-09-20T15:46:57.651Z,19.05
2022-09-20T15:49:26.860Z,18.44
2022-09-20T15:51:57.209Z,18.40
2022-09-20T15:54:26.731Z,17.78
2022-09-20T15:56:55.566Z,17.33
2022-09-20T15:59:24.371Z,16.99
2022-09-20T16:01:53.165Z,16.43
2022-09-20T16:04:21.916Z,16.35
2022-09-20T18:33:33.348Z,14.23
2022-09-20T18:36:03.582Z,14.27
2022-09-20T18:38:33.716Z,14.21
2022-09-20T18:41:03.431Z,13.93
2022-09-20T18:43:35.554Z,13.86
2022-09-20T18:46:04.362Z,13.90
2022-09-20T18:48:35.062Z,14.01
2022-09-20T18:51:05.368Z,13.92
2022-09-20T18:53:36.667Z,13.73
2022-09-20T18:56:10.582Z,13.84
2022-09-20T18:58:40.070Z,13.77
2022-09-20T19:01:35.197Z,13.71
2022-09-20T19:04:22.285Z,13.42
2022-09-20T19:07:00.653Z,13.33
2022-09-20T19:09:40.780Z,12.98
2022-09-20T19:12:19.183Z,12.99
2022-09-20T19:15:12.704Z,12.40
2022-09-20T19:18:02.288Z,12.40
2022-09-20T19:20:38.663Z,12.10
2022-09-20T19:23:35.801Z,12.18
2022-09-20T19:26:09.891Z,12.34
2022-09-20T19:28:39.072Z,12.43
2022-09-20T19:31:15.690Z,12.29
2022-09-20T19:33:48.515Z,12.16
2022-09-20T19:36:21.915Z,12.15
2022-09-20T19:39:01.498Z,12.26
2022-09-20T19:41:46.234Z,12.23
2022-09-20T19:44:34.135Z,11.81
2022-09-20T19:47:14.850Z,11.93
2022-09-20T19:49:53.534Z,11.38
2022-09-20T19:52:24.461Z,11.77
2022-09-20T19:54:54.019Z,11.72
2022-09-20T19:57:24.994Z,11.76
2022-09-20T19:59:55.840Z,11.67
2022-09-20T20:02:25.238Z,11.49
2022-09-20T20:04:54.533Z,10.55
2022-09-20T20:07:34.683Z,10.72
2022-09-20T20:10:15.667Z,11.29
2022-09-20T20:12:51.217Z,11.54
2022-09-20T20:15:30.945Z,11.56
2022-09-20T20:18:07.831Z,11.76
2022-09-20T20:20:42.078Z,11.98
2022-09-20T20:23:40.737Z,12.18
2022-09-20T20:26:10.799Z,11.98
2022-09-20T20:28:39.688Z,12.12
2022-09-20T20:31:12.333Z,11.44
2022-09-20T20:33:41.741Z,11.68
2022-09-20T20:36:11.997Z,11.73
2022-09-20T20:38:46.416Z,11.52
2022-09-20T20:41:18.506Z,11.55
2022-09-20T20:43:48.026Z,11.06
2022-09-20T20:46:18.813Z,10.90
2022-09-20T20:48:48.425Z,11.00
2022-09-20T20:51:19.157Z,11.29
2022-09-20T20:53:50.673Z,11.22
2022-09-20T20:56:21.445Z,11.49
2022-09-20T20:58:50.511Z,11.42
2022-09-20T21:01:21.034Z,10.85
2022-09-20T21:03:51.744Z,11.00
2022-09-20T21:06:21.235Z,11.13
2022-09-20T21:08:51.401Z,10.98
2022-09-20T21:11:21.970Z,10.89
2022-09-20T21:13:51.443Z,10.62
2022-09-20T21:16:21.849Z,10.48
2022-09-20T21:18:51.680Z,10.90
2022-09-20T21:21:23.108Z,10.87
2022-09-20T21:23:55.087Z,10.40
2022-09-20T21:26:25.236Z,9.72
2022-09-20T21:28:59.118Z,9.76
2022-09-20T21:31:29.333Z,10.14
2022-09-20T21:33:58.464Z,10.29
2022-09-20T21:36:29.202Z,10.28
2022-09-20T21:38:59.326Z,10.46
2022-09-20T21:41:30.419Z,10.47
2022-09-20T21:44:01.208Z,10.50
2022-09-20T21:46:31.651Z,10.50
2022-09-20T21:49:01.984Z,10.44
2022-09-20T21:51:31.554Z,10.43
2022-09-20T21:54:02.921Z,9.84
2022-09-20T21:56:33.950Z,9.92
2022-09-20T21:59:04.315Z,10.12
2022-09-20T22:01:35.104Z,10.34
2022-09-20T22:04:07.083Z,10.27
2022-09-20T22:06:37.618Z,10.44
2022-09-20T22:09:09.638Z,10.14
2022-09-20T22:11:40.881Z,10.06
2022-09-20T22:14:10.976Z,10.27
2022-09-20T22:16:41.709Z,10.56
2022-09-20T22:19:11.860Z,10.29
2022-09-20T22:21:43.086Z,10.36
2022-09-20T22:24:14.832Z,9.99
2022-09-20T22:26:46.199Z,9.77
2022-09-20T22:29:15.924Z,9.69
2022-09-20T22:31:46.697Z,9.32
2022-09-20T22:34:17.400Z,9.91
2022-09-20T22:36:46.287Z,9.80
2022-09-20T22:39:17.126Z,10.07
2022-09-20T22:41:47.988Z,9.98
2022-09-20T22:44:17.048Z,9.58
2022-09-20T22:46:45.767Z,8.89
2022-09-20T22:49:14.600Z,8.70
2022-09-20T22:51:43.326Z,8.58
2022-09-20T22:54:13.786Z,8.81
2022-09-20T22:56:43.977Z,8.97
2022-09-20T22:59:14.878Z,9.10
2022-09-20T23:01:45.501Z,9.04
2022-09-20T23:04:16.611Z,9.01
2022-09-20T23:06:48.177Z,9.19
2022-09-20T23:09:18.836Z,9.42
2022-09-20T23:11:49.501Z,9.37
2022-09-20T23:14:19.747Z,9.39
2022-09-20T23:16:49.169Z,9.48
2022-09-20T23:19:18.667Z,9.34
2022-09-20T23:21:47.746Z,9.17
2022-09-20T23:24:17.240Z,9.00
2022-09-20T23:26:46.309Z,9.06
2022-09-20T23:29:18.112Z,8.42
2022-09-20T23:31:48.632Z,7.95
2022-09-20T23:34:18.002Z,8.04
2022-09-20T23:36:47.810Z,8.16
2022-09-20T23:39:17.163Z,8.34
2022-09-20T23:41:50.592Z,8.43
2022-09-20T23:44:21.497Z,8.73
2022-09-20T23:46:50.258Z,8.92
2022-09-20T23:49:19.052Z,8.67
2022-09-20T23:51:47.880Z,8.11
2022-09-20T23:54:16.638Z,7.86
2022-09-20T23:56:46.169Z,8.16
2022-09-20T23:59:15.362Z,8.37
